createdAt,value
2023-07-11T00:00:27.496Z,27.90
2023-07-11T00:02:56.602Z,27.80
2023-07-11T00:05:25.800Z,27.80
2023-07-11T00:07:54.923Z,27.80
2023-07-11T00:10:24.091Z,27.70
2023-07-11T00:12:54.611Z,27.80
2023-07-11T00:15:24.276Z,27.70
2023-07-11T00:17:54.578Z,27.70
2023-07-11T00:20:23.967Z,27.70
2023-07-11T00:22:53.064Z,27.70
2023-07-11T00:25:22.580Z,27.60
2023-07-11T00:27:51.650Z,27.60
2023-07-11T00:30:22.084Z,27.60
2023-07-11T00:32:51.202Z,27.60
2023-07-11T00:35:22.599Z,27.50
2023-07-11T00:37:51.665Z,27.50
2023-07-11T00:40:20.654Z,27.50
2023-07-11T00:42:53.055Z,27.50
2023-07-11T00:46:04.970Z,27.40
2023-07-11T00:48:37.570Z,27.40
2023-07-11T00:51:09.553Z,27.40
2023-07-11T00:53:41.413Z,27.40
2023-07-11T00:56:17.045Z,27.40
2023-07-11T00:58:47.804Z,27.30
2023-07-11T01:01:36.940Z,27.30
2023-07-11T01:04:08.118Z,27.30
2023-07-11T01:06:37.763Z,27.20
2023-07-11T01:09:06.786Z,27.20
2023-07-11T01:11:56.494Z,27.20
2023-07-11T01:14:27.057Z,27.10
2023-07-11T01:17:00.016Z,27.10
2023-07-11T01:19:29.168Z,27.10
2023-07-11T01:21:59.582Z,27.10
2023-07-11T01:24:28.580Z,27.10
2023-07-11T01:26:57.795Z,27.10
2023-07-11T01:29:26.850Z,27.00
2023-07-11T01:31:55.887Z,27.00
2023-07-11T01:34:28.354Z,27.00
2023-07-11T01:36:57.369Z,27.00
2023-07-11T01:39:27.780Z,27.00
2023-07-11T01:41:59.603Z,26.90
2023-07-11T01:44:29.873Z,26.90
2023-07-11T01:46:59.265Z,26.90
2023-07-11T01:49:30.165Z,26.90
2023-07-11T01:52:09.597Z,26.90
2023-07-11T01:54:39.925Z,26.80
2023-07-11T01:57:09.645Z,26.80
2023-07-11T01:59:40.235Z,26.80
2023-07-11T02:02:10.940Z,26.80
2023-07-11T02:04:40.432Z,26.80
2023-07-11T02:07:09.999Z,26.70
2023-07-11T02:09:40.588Z,26.70
2023-07-11T02:12:11.753Z,26.70
2023-07-11T02:14:41.858Z,26.60
2023-07-11T02:17:11.365Z,26.60
2023-07-11T02:19:40.442Z,26.60
2023-07-11T02:22:09.840Z,26.60
2023-07-11T02:24:41.798Z,26.60
2023-07-11T02:27:11.310Z,26.50
2023-07-11T02:29:40.349Z,26.60
2023-07-11T02:32:10.495Z,26.50
2023-07-11T02:34:39.570Z,26.50
2023-07-11T02:37:08.580Z,26.50
2023-07-11T02:39:39.019Z,26.50
2023-07-11T02:42:08.649Z,26.40
2023-07-11T02:44:37.826Z,26.40
2023-07-11T02:47:07.492Z,26.40
2023-07-11T02:49:39.437Z,26.40
2023-07-11T02:52:12.137Z,26.40
2023-07-11T02:54:44.879Z,26.40
2023-07-11T02:57:14.380Z,26.30
2023-07-11T02:59:43.442Z,26.30
2023-07-11T03:02:12.405Z,26.30
2023-07-11T03:04:41.449Z,26.30
2023-07-11T03:07:10.508Z,26.30
2023-07-11T03:09:40.177Z,26.20
2023-07-11T03:12:12.190Z,26.20
2023-07-11T03:14:41.187Z,26.20
2023-07-11T03:17:10.251Z,26.20
2023-07-11T03:19:39.267Z,26.20
2023-07-11T03:22:08.764Z,26.20
2023-07-11T03:24:37.743Z,26.10
2023-07-11T03:27:07.403Z,26.10
2023-07-11T03:29:37.786Z,26.10
2023-07-11T03:32:08.215Z,26.10
2023-07-11T03:34:39.482Z,26.00
2023-07-11T03:37:15.319Z,26.10
2023-07-11T03:39:44.535Z,26.00
2023-07-11T03:42:13.601Z,26.00
2023-07-11T03:44:45.926Z,26.00
2023-07-11T03:47:14.966Z,26.00
2023-07-11T03:49:47.012Z,26.00
2023-07-11T03:52:16.040Z,26.00
2023-07-11T03:54:48.088Z,25.90
2023-07-11T03:57:18.493Z,25.90
2023-07-11T03:59:49.134Z,25.90
2023-07-11T04:02:18.514Z,25.90
2023-07-11T04:04:47.756Z,25.80
2023-07-11T04:07:16.753Z,25.80
2023-07-11T04:09:46.016Z,25.80
2023-07-11T04:12:18.195Z,25.80
2023-07-11T04:14:48.618Z,25.80
2023-07-11T04:17:17.672Z,25.80
2023-07-11T04:19:46.655Z,25.80
2023-07-11T04:22:15.843Z,25.80
2023-07-11T04:24:45.234Z,25.80
2023-07-11T04:27:16.223Z,25.80
2023-07-11T04:29:45.526Z,25.70
2023-07-11T04:32:15.958Z,25.70
2023-07-11T04:34:45.072Z,25.70
2023-07-11T04:37:14.260Z,25.70
2023-07-11T04:39:43.252Z,25.70
2023-07-11T04:42:12.560Z,25.70
2023-07-11T04:44:41.692Z,25.60
2023-07-11T04:47:20.509Z,25.60
2023-07-11T04:49:51.205Z,25.60
2023-07-11T04:52:20.461Z,25.60
2023-07-11T04:54:49.715Z,25.60
2023-07-11T04:57:19.083Z,25.60
2023-07-11T04:59:48.358Z,25.60
2023-07-11T05:02:17.649Z,25.60
2023-07-11T05:04:46.990Z,25.60
2023-07-11T05:07:17.735Z,25.60
2023-07-11T05:09:58.643Z,25.50
2023-07-11T05:12:28.935Z,25.50
2023-07-11T05:14:58.386Z,25.50
2023-07-11T05:17:27.689Z,25.50
2023-07-11T05:19:59.212Z,25.50
2023-07-11T05:22:29.641Z,25.50
2023-07-11T05:24:58.955Z,25.50
2023-07-11T05:27:28.559Z,25.50
2023-07-11T05:29:57.891Z,25.50
2023-07-11T05:32:27.220Z,25.50
2023-07-11T05:34:56.498Z,25.50
2023-07-11T05:37:26.213Z,25.50
2023-07-11T05:39:56.674Z,25.50
2023-07-11T05:42:27.720Z,25.50
2023-07-11T05:44:57.879Z,25.50
2023-07-11T05:47:27.060Z,25.50
2023-07-11T05:49:56.317Z,25.50
2023-07-11T05:52:25.722Z,25.50
2023-07-11T05:54:56.500Z,25.50
2023-07-11T05:57:25.652Z,25.50
2023-07-11T05:59:54.706Z,25.60
2023-07-11T06:02:23.992Z,25.60
2023-07-11T06:04:53.070Z,25.60
2023-07-11T06:07:23.754Z,25.60
2023-07-11T06:09:54.774Z,25.60
2023-07-11T06:12:27.230Z,25.60
2023-07-11T06:14:56.781Z,25.60
2023-07-11T06:17:27.584Z,25.60
2023-07-11T06:19:57.025Z,25.70
2023-07-11T06:22:26.192Z,25.70
2023-07-11T06:24:55.226Z,25.70
2023-07-11T06:27:26.073Z,25.70
2023-07-11T06:29:55.204Z,25.70
2023-07-11T06:32:25.036Z,25.80
2023-07-11T06:34:54.478Z,25.80
2023-07-11T06:37:23.943Z,25.80
2023-07-11T06:39:53.311Z,25.80
2023-07-11T06:42:22.512Z,25.80
2023-07-11T06:44:53.157Z,25.90
2023-07-11T06:47:22.606Z,25.90
2023-07-11T06:49:52.011Z,25.90
2023-07-11T06:52:21.330Z,26.00
2023-07-11T06:54:50.664Z,26.00
2023-07-11T06:57:19.946Z,26.00
2023-07-11T06:59:49.505Z,26.00
2023-07-11T07:02:20.259Z,26.10
2023-07-11T07:04:49.597Z,26.10
2023-07-11T07:07:20.642Z,26.10
2023-07-11T07:09:50.162Z,26.20
2023-07-11T07:12:19.452Z,26.20
2023-07-11T07:14:49.003Z,26.30
2023-07-11T07:17:19.767Z,26.30
2023-07-11T07:19:49.033Z,26.40
2023-07-11T07:22:18.468Z,26.40
2023-07-11T07:24:47.817Z,26.40
2023-07-11T07:27:27.945Z,26.50
2023-07-11T07:29:58.241Z,26.50
2023-07-11T07:32:28.752Z,26.60
2023-07-11T07:34:57.815Z,26.60
2023-07-11T07:37:26.817Z,26.70
2023-07-11T07:39:56.013Z,26.70
2023-07-11T07:42:25.109Z,26.80
2023-07-11T07:44:56.972Z,26.80
2023-07-11T07:47:26.039Z,26.90
2023-07-11T07:49:58.003Z,26.90
2023-07-11T07:52:28.478Z,26.90
2023-07-11T07:54:57.571Z,27.00
2023-07-11T07:57:26.872Z,27.10
2023-07-11T07:59:58.947Z,27.10
2023-07-11T08:02:28.534Z,27.20
2023-07-11T08:04:59.121Z,27.20
2023-07-11T08:07:28.992Z,27.30
2023-07-11T08:09:59.432Z,27.30
2023-07-11T08:12:31.675Z,27.40
2023-07-11T08:15:00.880Z,27.50
2023-07-11T08:17:30.164Z,27.50
2023-07-11T08:20:04.022Z,27.60
2023-07-11T08:22:33.191Z,27.60
2023-07-11T08:25:02.511Z,27.70
2023-07-11T08:27:31.664Z,27.80
2023-07-11T08:30:00.693Z,27.80
2023-07-11T08:32:30.007Z,27.90
2023-07-11T08:34:59.252Z,27.90
2023-07-11T08:37:29.775Z,28.00
2023-07-11T08:39:58.789Z,28.10
2023-07-11T08:42:36.341Z,28.20
2023-07-11T08:45:16.751Z,28.30
2023-07-11T08:47:56.558Z,28.30
2023-07-11T08:50:30.907Z,28.40
2023-07-11T08:53:09.541Z,28.60
2023-07-11T08:55:43.529Z,28.70
2023-07-11T08:58:17.015Z,28.70
2023-07-11T09:00:50.051Z,28.80
2023-07-11T09:03:28.203Z,28.90
2023-07-11T09:06:02.763Z,29.00
2023-07-11T09:08:34.852Z,29.10
2023-07-11T09:11:12.262Z,29.20
2023-07-11T09:13:56.214Z,29.20
2023-07-11T09:16:36.582Z,29.30
2023-07-11T09:19:30.932Z,29.40
2023-07-11T09:22:09.359Z,29.40
2023-07-11T09:24:49.424Z,29.50
2023-07-11T09:27:29.799Z,29.60
2023-07-11T09:29:59.199Z,29.70
2023-07-11T09:32:35.369Z,29.80
2023-07-11T09:35:24.647Z,29.80
2023-07-11T09:38:01.176Z,29.80
2023-07-11T09:40:38.799Z,29.90
2023-07-11T09:43:09.572Z,30.00
2023-07-11T09:45:42.915Z,30.10
2023-07-11T09:48:15.116Z,30.10
2023-07-11T09:51:11.264Z,30.20
2023-07-11T09:53:45.370Z,30.20
2023-07-11T09:56:19.699Z,30.30
2023-07-11T09:58:52.176Z,30.30
2023-07-11T10:01:26.619Z,30.40
2023-07-11T10:03:59.293Z,30.40
2023-07-11T10:09:32.331Z,30.50
2023-07-11T10:12:05.707Z,30.60
2023-07-11T10:14:43.793Z,30.70
2023-07-11T10:17:21.136Z,30.70
2023-07-11T10:20:07.679Z,30.80
2023-07-11T10:22:49.482Z,30.80
2023-07-11T10:25:24.222Z,30.90
2023-07-11T10:27:57.778Z,31.00
2023-07-11T10:30:31.573Z,31.10
2023-07-11T10:33:16.310Z,31.10
2023-07-11T10:35:56.227Z,31.20
2023-07-11T10:38:31.770Z,31.30
2023-07-11T10:41:03.006Z,31.40
2023-07-11T10:43:39.324Z,31.40
2023-07-11T10:46:18.517Z,31.50
2023-07-11T10:48:53.025Z,31.60
2023-07-11T10:51:28.862Z,31.70
2023-07-11T10:54:05.890Z,31.70
2023-07-11T10:56:37.999Z,31.80
2023-07-11T10:59:14.144Z,31.80
2023-07-11T11:01:58.061Z,31.90
2023-07-11T11:05:01.615Z,31.90
2023-07-11T11:07:37.562Z,32.00
2023-07-11T11:10:15.473Z,32.10
2023-07-11T11:12:58.488Z,32.10
2023-07-11T11:15:48.635Z,32.20
2023-07-11T11:18:41.772Z,32.20
2023-07-11T11:21:24.265Z,32.30
2023-07-11T11:24:14.401Z,32.30
2023-07-11T11:26:57.248Z,32.40
2023-07-11T11:29:45.579Z,32.40
2023-07-11T11:32:24.411Z,32.50
2023-07-11T11:35:16.413Z,32.50
2023-07-11T11:38:11.651Z,32.50
2023-07-11T11:40:43.840Z,32.60
2023-07-11T11:43:19.255Z,32.60
2023-07-11T11:53:45.364Z,32.70
2023-07-11T11:56:22.389Z,32.80
2023-07-11T11:58:59.297Z,32.80
2023-07-11T12:01:42.484Z,32.80
2023-07-11T12:04:38.832Z,32.80
2023-07-11T12:07:23.452Z,32.90
2023-07-11T12:10:20.727Z,32.90
2023-07-11T12:13:20.803Z,33.00
2023-07-11T12:15:55.665Z,33.00
2023-07-11T12:18:46.028Z,33.00
2023-07-11T12:21:41.227Z,33.10
2023-07-11T12:24:42.772Z,33.10
2023-07-11T12:27:49.194Z,33.10
2023-07-11T12:30:42.878Z,33.10
2023-07-11T12:33:37.450Z,33.10
2023-07-11T12:36:51.304Z,33.20
2023-07-11T12:39:51.521Z,33.20
2023-07-11T12:42:44.269Z,33.20
2023-07-11T12:45:19.064Z,33.20
2023-07-11T12:47:52.348Z,33.20
2023-07-11T12:50:25.288Z,33.20
2023-07-11T12:53:06.209Z,33.30
2023-07-11T12:55:35.227Z,33.30
2023-07-11T12:58:04.605Z,33.30
2023-07-11T13:00:34.473Z,33.30
2023-07-11T13:03:24.993Z,33.30
2023-07-11T13:06:11.033Z,33.30
2023-07-11T13:08:48.123Z,33.40
2023-07-11T13:11:22.743Z,33.40
2023-07-11T13:13:53.685Z,33.40
2023-07-11T13:16:28.124Z,33.40
2023-07-11T13:18:57.403Z,33.40
2023-07-11T13:21:26.589Z,33.50
2023-07-11T13:24:00.473Z,33.50
2023-07-11T13:26:31.253Z,33.50
2023-07-11T13:29:12.418Z,33.50
2023-07-11T13:31:45.848Z,33.60
2023-07-11T13:34:18.832Z,33.50
2023-07-11T13:36:52.329Z,33.60
2023-07-11T13:39:26.157Z,33.60
2023-07-11T13:42:00.357Z,33.60
2023-07-11T13:44:33.998Z,33.60
2023-07-11T13:47:04.377Z,33.60
2023-07-11T13:49:39.841Z,33.60
2023-07-11T13:52:22.724Z,33.60
2023-07-11T13:54:58.812Z,33.70
2023-07-11T13:57:27.798Z,33.60
2023-07-11T14:00:11.391Z,33.70
2023-07-11T14:02:43.794Z,33.70
2023-07-11T14:05:23.121Z,33.70
2023-07-11T14:07:54.321Z,33.70
2023-07-11T14:10:27.304Z,33.70
2023-07-11T14:12:58.281Z,33.70
2023-07-11T14:15:31.322Z,33.70
2023-07-11T14:18:00.656Z,33.80
2023-07-11T14:20:30.591Z,33.80
2023-07-11T14:23:00.145Z,33.80
2023-07-11T14:25:32.049Z,33.80
2023-07-11T14:28:01.145Z,33.80
2023-07-11T14:30:31.590Z,33.80
2023-07-11T14:33:00.634Z,33.80
2023-07-11T14:35:32.712Z,33.80
2023-07-11T14:38:05.733Z,33.80
2023-07-11T14:40:36.741Z,33.80
2023-07-11T14:43:12.520Z,33.80
2023-07-11T14:45:41.790Z,33.80
2023-07-11T14:48:22.129Z,33.80
2023-07-11T14:51:01.068Z,33.90
2023-07-11T14:53:37.775Z,33.90
2023-07-11T14:58:50.118Z,33.90
2023-07-11T15:01:19.391Z,33.90
2023-07-11T15:16:33.097Z,33.90
2023-07-11T15:19:02.215Z,33.90
2023-07-11T15:21:31.267Z,33.90
2023-07-11T15:24:00.309Z,33.90
2023-07-11T15:26:30.670Z,33.90
2023-07-11T15:28:59.681Z,33.90
2023-07-11T15:31:29.362Z,33.90
2023-07-11T15:33:58.446Z,33.90
2023-07-11T15:36:27.443Z,33.90
2023-07-11T15:38:58.737Z,33.90
2023-07-11T15:41:27.869Z,33.90
2023-07-11T15:43:58.210Z,33.90
2023-07-11T15:46:28.917Z,33.80
2023-07-11T15:49:00.128Z,33.90
2023-07-11T15:51:29.418Z,33.90
2023-07-11T15:53:58.417Z,33.90
2023-07-11T15:56:27.503Z,34.00
2023-07-11T15:58:57.846Z,34.00
2023-07-11T16:01:26.904Z,34.00
2023-07-11T16:03:55.971Z,34.00
2023-07-11T16:06:25.057Z,34.00
2023-07-11T16:08:54.072Z,33.90
2023-07-11T16:11:23.997Z,34.00
2023-07-11T16:13:53.224Z,34.00
2023-07-11T16:16:24.037Z,34.00
2023-07-11T16:18:53.387Z,34.00
2023-07-11T16:21:22.456Z,34.00
2023-07-11T16:23:51.516Z,34.00
2023-07-11T16:26:24.877Z,34.00
2023-07-11T16:28:54.066Z,34.00
2023-07-11T16:31:26.879Z,34.00
2023-07-11T16:33:56.272Z,34.00
2023-07-11T16:36:25.316Z,34.00
2023-07-11T16:38:54.343Z,34.00
2023-07-11T16:41:25.648Z,34.00
2023-07-11T16:43:54.920Z,34.00
2023-07-11T16:46:25.428Z,33.90
2023-07-11T16:48:55.270Z,33.90
2023-07-11T16:51:26.829Z,33.90
2023-07-11T16:54:09.500Z,33.90
2023-07-11T16:56:51.843Z,34.00
2023-07-11T16:59:27.110Z,33.90
2023-07-11T17:02:24.203Z,33.90
2023-07-11T17:05:28.829Z,33.90
2023-07-11T17:08:36.129Z,33.80
2023-07-11T17:11:13.197Z,33.90
2023-07-11T17:13:44.306Z,33.90
2023-07-11T17:17:10.048Z,33.90
2023-07-11T17:25:06.130Z,33.80
2023-07-11T17:35:50.326Z,33.80
2023-07-11T17:49:56.594Z,33.80
2023-07-11T17:52:38.060Z,33.80
2023-07-11T17:55:11.865Z,33.70
2023-07-11T17:57:43.903Z,33.70
2023-07-11T18:00:17.877Z,33.60
2023-07-11T18:03:00.627Z,33.60
2023-07-11T18:05:36.827Z,33.60
2023-07-11T18:08:14.063Z,33.60
2023-07-11T18:10:50.286Z,33.50
2023-07-11T18:13:25.895Z,33.50
2023-07-11T18:16:01.586Z,33.40
2023-07-11T18:18:42.427Z,33.50
2023-07-11T18:21:18.891Z,33.40
2023-07-11T18:23:53.220Z,33.40
2023-07-11T18:27:37.216Z,33.40
2023-07-11T18:30:37.814Z,33.40
2023-07-11T18:33:20.729Z,33.40
2023-07-11T18:35:55.383Z,33.40
2023-07-11T18:38:42.659Z,33.30
2023-07-11T18:41:20.657Z,33.20
2023-07-11T18:43:55.870Z,33.30
2023-07-11T18:46:38.239Z,33.20
2023-07-11T18:49:10.234Z,33.20
2023-07-11T18:52:15.072Z,33.20
2023-07-11T18:54:54.754Z,33.10
2023-07-11T18:57:33.079Z,33.10
2023-07-11T19:00:20.008Z,33.10
2023-07-11T19:02:54.159Z,32.90
2023-07-11T19:05:28.673Z,33.00
2023-07-11T19:08:00.829Z,32.90
2023-07-11T19:10:34.654Z,32.90
2023-07-11T19:13:04.620Z,32.90
2023-07-11T19:15:38.168Z,32.90
2023-07-11T19:18:26.581Z,32.90
2023-07-11T19:21:02.151Z,32.80
2023-07-11T19:23:48.733Z,32.80
2023-07-11T19:26:26.322Z,32.80
2023-07-11T19:29:06.498Z,32.80
2023-07-11T19:31:42.578Z,32.80
2023-07-11T19:34:13.787Z,32.70
2023-07-11T19:37:04.600Z,32.70
2023-07-11T19:40:10.807Z,32.60
2023-07-11T19:43:00.069Z,32.60
2023-07-11T19:45:39.604Z,32.60
2023-07-11T19:48:26.967Z,32.60
2023-07-11T19:51:01.743Z,32.50
2023-07-11T19:53:33.510Z,32.50
2023-07-11T19:56:41.092Z,32.50
2023-07-11T19:59:19.798Z,32.40
2023-07-11T20:01:52.770Z,32.40
2023-07-11T20:04:45.403Z,32.30
2023-07-11T20:07:43.808Z,32.30
2023-07-11T20:10:31.234Z,32.30
2023-07-11T20:13:02.618Z,32.30
2023-07-11T20:15:51.241Z,32.30
2023-07-11T20:18:37.337Z,32.20
2023-07-11T20:21:14.936Z,32.20
2023-07-11T20:24:10.209Z,32.20
2023-07-11T20:30:17.433Z,32.20
2023-07-11T20:32:59.797Z,32.20
2023-07-11T20:35:30.714Z,32.10
2023-07-11T20:38:20.210Z,32.10
2023-07-11T20:41:03.033Z,32.00
2023-07-11T20:44:25.929Z,32.00
2023-07-11T20:49:13.383Z,32.00
2023-07-11T20:52:35.492Z,32.00
2023-07-11T20:55:08.229Z,32.00
2023-07-11T20:58:14.771Z,32.00
2023-07-11T21:07:29.980Z,31.90
2023-07-11T21:29:29.294Z,31.70
2023-07-11T21:33:03.955Z,31.60
2023-07-11T21:36:19.647Z,31.60
2023-07-11T21:42:43.792Z,31.50
2023-07-11T21:46:00.009Z,31.30
2023-07-11T21:48:37.471Z,31.20
2023-07-11T21:51:34.033Z,31.20
2023-07-11T21:54:04.717Z,31.10
2023-07-11T21:56:52.476Z,31.00
2023-07-11T21:59:25.897Z,30.80
2023-07-11T22:01:57.266Z,30.90
2023-07-11T22:04:27.084Z,30.80
2023-07-11T22:09:55.346Z,30.70
2023-07-11T22:12:24.383Z,30.70
2023-07-11T22:14:53.463Z,30.60
2023-07-11T22:17:25.484Z,30.50
2023-07-11T22:19:55.231Z,30.40
2023-07-11T22:22:24.255Z,30.40
2023-07-11T22:24:54.661Z,30.30
2023-07-11T22:27:24.946Z,30.20
2023-07-11T22:29:53.956Z,30.10
2023-07-11T22:32:26.761Z,30.00
2023-07-11T22:34:57.336Z,29.80
2023-07-11T22:37:27.295Z,29.70
2023-07-11T22:39:57.655Z,29.50
2023-07-11T22:42:26.754Z,29.40
2023-07-11T22:44:55.835Z,29.20
2023-07-11T22:47:24.888Z,29.00
2023-07-11T22:49:53.870Z,28.80
2023-07-11T22:52:22.850Z,28.70
2023-07-11T22:54:51.819Z,28.50
2023-07-11T22:57:22.201Z,28.40
2023-07-11T22:59:51.193Z,28.30
2023-07-11T23:02:20.306Z,28.20
2023-07-11T23:04:49.413Z,28.10
2023-07-11T23:07:18.454Z,28.00
2023-07-11T23:09:47.384Z,27.90
2023-07-11T23:12:16.399Z,27.80
2023-07-11T23:14:46.747Z,27.80
2023-07-11T23:17:15.748Z,27.70
2023-07-11T23:19:44.795Z,27.70
2023-07-11T23:22:13.835Z,27.70
2023-07-11T23:24:45.572Z,27.60
2023-07-11T23:27:14.885Z,27.60
2023-07-11T23:29:43.898Z,27.50
2023-07-11T23:32:17.256Z,27.50
2023-07-11T23:34:46.257Z,27.50
2023-07-11T23:37:15.226Z,27.50
2023-07-11T23:39:46.482Z,27.40
2023-07-11T23:42:15.700Z,27.40
2023-07-11T23:44:45.111Z,27.40
2023-07-11T23:47:14.101Z,27.30
2023-07-11T23:49:44.465Z,27.30
2023-07-11T23:52:13.436Z,27.30
2023-07-11T23:54:43.485Z,27.30
2023-07-11T23:57:12.540Z,27.30
2023-07-11T23:59:41.555Z,27.30
